sensor_id;sensor_type;location;lat;lon;timestamp;P1;durP1;ratioP1;P2;durP2;ratioP2
75272;SDS011;63869;52.344;16.928;2023-02-01T00:00:00;16.73;;;2.90;;
75272;SDS011;63869;52.344;16.928;2023-02-01T00:02:25;11.20;;;2.72;;
75272;SDS011;63869;52.344;16.928;2023-02-01T00:04:50;10.52;;;2.90;;
75272;SDS011;63869;52.344;16.928;2023-02-01T00:07:16;15.43;;;2.90;;
75272;SDS011;63869;52.344;16.928;2023-02-01T00:09:41;10.57;;;2.85;;
75272;SDS011;63869;52.344;16.928;2023-02-01T00:12:06;11.88;;;2.38;;
75272;SDS011;63869;52.344;16.928;2023-02-01T00:14:32;13.73;;;2.63;;
75272;SDS011;63869;52.344;16.928;2023-02-01T00:17:03;12.90;;;2.40;;
75272;SDS011;63869;52.344;16.928;2023-02-01T00:19:31;12.30;;;2.42;;
75272;SDS011;63869;52.344;16.928;2023-02-01T00:21:57;15.30;;;2.28;;
75272;SDS011;63869;52.344;16.928;2023-02-01T00:24:22;11.27;;;2.17;;
75272;SDS011;63869;52.344;16.928;2023-02-01T00:26:47;16.45;;;2.67;;
75272;SDS011;63869;52.344;16.928;2023-02-01T00:29:17;14.90;;;2.95;;
75272;SDS011;63869;52.344;16.928;2023-02-01T00:31:44;15.40;;;2.33;;
75272;SDS011;63869;52.344;16.928;2023-02-01T00:34:11;12.10;;;2.30;;
75272;SDS011;63869;52.344;16.928;2023-02-01T00:36:40;14.63;;;2.80;;
75272;SDS011;63869;52.344;16.928;2023-02-01T00:39:06;12.20;;;2.00;;
75272;SDS011;63869;52.344;16.928;2023-02-01T00:41:32;10.05;;;2.75;;
75272;SDS011;63869;52.344;16.928;2023-02-01T00:43:58;14.30;;;2.42;;
75272;SDS011;63869;52.344;16.928;2023-02-01T00:46:23;11.43;;;2.33;;
75272;SDS011;63869;52.344;16.928;2023-02-01T00:48:49;11.65;;;2.60;;
75272;SDS011;63869;52.344;16.928;2023-02-01T00:51:17;13.88;;;2.58;;
75272;SDS011;63869;52.344;16.928;2023-02-01T00:53:44;10.65;;;2.10;;
75272;SDS011;63869;52.344;16.928;2023-02-01T00:56:10;9.68;;;2.08;;
75272;SDS011;63869;52.344;16.928;2023-02-01T00:58:35;15.95;;;2.40;;
75272;SDS011;63869;52.344;16.928;2023-02-01T01:01:02;22.08;;;2.40;;
75272;SDS011;63869;52.344;16.928;2023-02-01T01:03:32;14.27;;;2.20;;
75272;SDS011;63869;52.344;16.928;2023-02-01T01:05:59;15.60;;;2.53;;
75272;SDS011;63869;52.344;16.928;2023-02-01T01:08:26;14.95;;;2.25;;
75272;SDS011;63869;52.344;16.928;2023-02-01T01:10:52;10.63;;;2.15;;
75272;SDS011;63869;52.344;16.928;2023-02-01T01:13:18;14.02;;;2.42;;
75272;SDS011;63869;52.344;16.928;2023-02-01T01:15:44;15.45;;;2.45;;
75272;SDS011;63869;52.344;16.928;2023-02-01T01:18:10;13.98;;;2.90;;
75272;SDS011;63869;52.344;16.928;2023-02-01T01:20:36;11.13;;;2.50;;
75272;SDS011;63869;52.344;16.928;2023-02-01T01:23:03;7.90;;;2.00;;
75272;SDS011;63869;52.344;16.928;2023-02-01T01:25:28;14.23;;;2.20;;
75272;SDS011;63869;52.344;16.928;2023-02-01T01:27:54;10.57;;;2.20;;
75272;SDS011;63869;52.344;16.928;2023-02-01T01:30:19;14.85;;;2.42;;
75272;SDS011;63869;52.344;16.928;2023-02-01T01:32:45;14.45;;;2.00;;
75272;SDS011;63869;52.344;16.928;2023-02-01T01:35:10;12.40;;;1.98;;
75272;SDS011;63869;52.344;16.928;2023-02-01T01:37:36;9.70;;;1.98;;
75272;SDS011;63869;52.344;16.928;2023-02-01T01:40:02;10.63;;;2.03;;
75272;SDS011;63869;52.344;16.928;2023-02-01T01:42:28;9.15;;;2.00;;
75272;SDS011;63869;52.344;16.928;2023-02-01T01:47:31;12.52;;;2.10;;
75272;SDS011;63869;52.344;16.928;2023-02-01T01:50:02;11.68;;;2.05;;
75272;SDS011;63869;52.344;16.928;2023-02-01T01:52:31;10.13;;;1.90;;
75272;SDS011;63869;52.344;16.928;2023-02-01T01:54:56;10.63;;;2.00;;
75272;SDS011;63869;52.344;16.928;2023-02-01T01:57:25;7.75;;;1.70;;
75272;SDS011;63869;52.344;16.928;2023-02-01T02:00:05;15.52;;;2.05;;
75272;SDS011;63869;52.344;16.928;2023-02-01T02:02:33;18.65;;;2.63;;
75272;SDS011;63869;52.344;16.928;2023-02-01T02:04:59;10.70;;;2.53;;
75272;SDS011;63869;52.344;16.928;2023-02-01T02:07:26;9.80;;;1.88;;
75272;SDS011;63869;52.344;16.928;2023-02-01T02:09:55;10.70;;;2.00;;
75272;SDS011;63869;52.344;16.928;2023-02-01T02:12:21;11.75;;;2.00;;
75272;SDS011;63869;52.344;16.928;2023-02-01T02:14:46;7.82;;;2.03;;
75272;SDS011;63869;52.344;16.928;2023-02-01T02:34:44;18.23;;;3.55;;
75272;SDS011;63869;52.344;16.928;2023-02-01T02:37:38;16.98;;;4.00;;
75272;SDS011;63869;52.344;16.928;2023-02-01T02:40:15;13.35;;;3.10;;
75272;SDS011;63869;52.344;16.928;2023-02-01T02:42:43;14.80;;;2.50;;
75272;SDS011;63869;52.344;16.928;2023-02-01T02:45:36;10.25;;;2.80;;
75272;SDS011;63869;52.344;16.928;2023-02-01T02:48:25;9.80;;;2.40;;
75272;SDS011;63869;52.344;16.928;2023-02-01T02:51:00;12.80;;;2.55;;
75272;SDS011;63869;52.344;16.928;2023-02-01T02:59:18;9.40;;;2.08;;
75272;SDS011;63869;52.344;16.928;2023-02-01T03:02:05;14.00;;;2.58;;
75272;SDS011;63869;52.344;16.928;2023-02-01T03:04:54;10.93;;;3.50;;
75272;SDS011;63869;52.344;16.928;2023-02-01T03:10:20;11.32;;;3.55;;
75272;SDS011;63869;52.344;16.928;2023-02-01T03:12:52;12.98;;;3.05;;
75272;SDS011;63869;52.344;16.928;2023-02-01T03:15:26;12.05;;;3.10;;
75272;SDS011;63869;52.344;16.928;2023-02-01T03:18:00;10.77;;;2.90;;
75272;SDS011;63869;52.344;16.928;2023-02-01T03:20:28;12.32;;;2.30;;
75272;SDS011;63869;52.344;16.928;2023-02-01T03:22:55;16.85;;;2.58;;
75272;SDS011;63869;52.344;16.928;2023-02-01T03:25:23;14.18;;;2.53;;
75272;SDS011;63869;52.344;16.928;2023-02-01T03:27:57;23.95;;;3.10;;
75272;SDS011;63869;52.344;16.928;2023-02-01T03:30:37;9.43;;;2.10;;
75272;SDS011;63869;52.344;16.928;2023-02-01T03:33:07;12.65;;;3.47;;
75272;SDS011;63869;52.344;16.928;2023-02-01T03:44:04;12.55;;;3.08;;
75272;SDS011;63869;52.344;16.928;2023-02-01T03:46:38;16.80;;;3.00;;
75272;SDS011;63869;52.344;16.928;2023-02-01T03:49:09;13.50;;;2.83;;
75272;SDS011;63869;52.344;16.928;2023-02-01T03:51:38;12.43;;;3.55;;
75272;SDS011;63869;52.344;16.928;2023-02-01T03:54:06;8.18;;;2.33;;
75272;SDS011;63869;52.344;16.928;2023-02-01T03:56:35;18.17;;;2.97;;
75272;SDS011;63869;52.344;16.928;2023-02-01T03:59:02;11.80;;;2.55;;
75272;SDS011;63869;52.344;16.928;2023-02-01T04:01:29;20.38;;;2.60;;
75272;SDS011;63869;52.344;16.928;2023-02-01T04:03:55;14.77;;;2.15;;
75272;SDS011;63869;52.344;16.928;2023-02-01T04:06:21;12.73;;;2.50;;
75272;SDS011;63869;52.344;16.928;2023-02-01T04:08:47;14.88;;;2.72;;
75272;SDS011;63869;52.344;16.928;2023-02-01T04:11:12;12.90;;;1.95;;
75272;SDS011;63869;52.344;16.928;2023-02-01T04:13:37;14.00;;;2.20;;
75272;SDS011;63869;52.344;16.928;2023-02-01T04:16:03;15.18;;;2.60;;
75272;SDS011;63869;52.344;16.928;2023-02-01T04:18:28;13.68;;;2.40;;
75272;SDS011;63869;52.344;16.928;2023-02-01T04:20:53;15.90;;;2.55;;
75272;SDS011;63869;52.344;16.928;2023-02-01T04:23:19;12.95;;;2.47;;
75272;SDS011;63869;52.344;16.928;2023-02-01T04:25:45;10.32;;;2.10;;
75272;SDS011;63869;52.344;16.928;2023-02-01T04:28:10;11.57;;;2.50;;
75272;SDS011;63869;52.344;16.928;2023-02-01T04:30:36;16.48;;;2.85;;
75272;SDS011;63869;52.344;16.928;2023-02-01T04:33:01;11.35;;;2.50;;
75272;SDS011;63869;52.344;16.928;2023-02-01T04:35:30;8.85;;;2.20;;
75272;SDS011;63869;52.344;16.928;2023-02-01T04:37:55;13.10;;;2.28;;
75272;SDS011;63869;52.344;16.928;2023-02-01T04:40:20;10.13;;;2.40;;
75272;SDS011;63869;52.344;16.928;2023-02-01T04:42:46;15.23;;;2.40;;
75272;SDS011;63869;52.344;16.928;2023-02-01T04:45:11;10.88;;;2.60;;
75272;SDS011;63869;52.344;16.928;2023-02-01T04:47:37;11.70;;;2.47;;
75272;SDS011;63869;52.344;16.928;2023-02-01T04:50:02;15.95;;;2.53;;
75272;SDS011;63869;52.344;16.928;2023-02-01T04:52:28;12.68;;;2.50;;
75272;SDS011;63869;52.344;16.928;2023-02-01T04:54:53;12.02;;;2.20;;
75272;SDS011;63869;52.344;16.928;2023-02-01T04:57:22;13.75;;;2.50;;
75272;SDS011;63869;52.344;16.928;2023-02-01T04:59:47;13.32;;;2.53;;
75272;SDS011;63869;52.344;16.928;2023-02-01T05:02:12;14.23;;;2.30;;
75272;SDS011;63869;52.344;16.928;2023-02-01T05:04:38;13.68;;;2.63;;
75272;SDS011;63869;52.344;16.928;2023-02-01T05:07:03;10.90;;;2.00;;
75272;SDS011;63869;52.344;16.928;2023-02-01T05:09:28;13.57;;;2.90;;
75272;SDS011;63869;52.344;16.928;2023-02-01T05:11:54;8.55;;;2.25;;
75272;SDS011;63869;52.344;16.928;2023-02-01T05:17:03;8.35;;;2.10;;
75272;SDS011;63869;52.344;16.928;2023-02-01T05:19:28;12.48;;;2.13;;
75272;SDS011;63869;52.344;16.928;2023-02-01T05:21:54;9.95;;;2.53;;
75272;SDS011;63869;52.344;16.928;2023-02-01T05:24:19;11.57;;;2.30;;
75272;SDS011;63869;52.344;16.928;2023-02-01T05:26:46;18.60;;;2.78;;
75272;SDS011;63869;52.344;16.928;2023-02-01T05:29:12;15.07;;;2.42;;
75272;SDS011;63869;52.344;16.928;2023-02-01T05:31:38;14.68;;;2.97;;
75272;SDS011;63869;52.344;16.928;2023-02-01T05:34:04;13.48;;;3.15;;
75272;SDS011;63869;52.344;16.928;2023-02-01T05:36:29;11.57;;;3.15;;
75272;SDS011;63869;52.344;16.928;2023-02-01T05:38:55;20.15;;;2.72;;
75272;SDS011;63869;52.344;16.928;2023-02-01T05:41:20;9.98;;;2.35;;
75272;SDS011;63869;52.344;16.928;2023-02-01T05:43:46;15.27;;;2.40;;
75272;SDS011;63869;52.344;16.928;2023-02-01T05:46:11;14.40;;;3.55;;
75272;SDS011;63869;52.344;16.928;2023-02-01T05:48:38;11.45;;;2.45;;
75272;SDS011;63869;52.344;16.928;2023-02-01T05:51:04;12.30;;;3.03;;
75272;SDS011;63869;52.344;16.928;2023-02-01T05:53:30;16.40;;;3.03;;
75272;SDS011;63869;52.344;16.928;2023-02-01T05:55:55;15.18;;;2.88;;
75272;SDS011;63869;52.344;16.928;2023-02-01T05:58:20;9.48;;;2.92;;
75272;SDS011;63869;52.344;16.928;2023-02-01T06:00:45;15.30;;;2.58;;
75272;SDS011;63869;52.344;16.928;2023-02-01T06:03:11;10.45;;;3.58;;
75272;SDS011;63869;52.344;16.928;2023-02-01T06:05:36;12.48;;;2.97;;
75272;SDS011;63869;52.344;16.928;2023-02-01T06:08:02;17.73;;;3.08;;
75272;SDS011;63869;52.344;16.928;2023-02-01T06:10:27;11.60;;;2.80;;
75272;SDS011;63869;52.344;16.928;2023-02-01T06:12:52;9.75;;;2.30;;
75272;SDS011;63869;52.344;16.928;2023-02-01T06:15:18;13.18;;;3.25;;
75272;SDS011;63869;52.344;16.928;2023-02-01T06:17:43;16.35;;;3.22;;
75272;SDS011;63869;52.344;16.928;2023-02-01T06:20:12;22.27;;;3.72;;
75272;SDS011;63869;52.344;16.928;2023-02-01T06:22:41;12.75;;;3.00;;
75272;SDS011;63869;52.344;16.928;2023-02-01T06:25:08;15.43;;;2.97;;
75272;SDS011;63869;52.344;16.928;2023-02-01T06:27:34;15.73;;;3.83;;
75272;SDS011;63869;52.344;16.928;2023-02-01T06:32:28;13.65;;;3.00;;
75272;SDS011;63869;52.344;16.928;2023-02-01T06:34:53;17.17;;;2.95;;
75272;SDS011;63869;52.344;16.928;2023-02-01T06:37:20;8.05;;;2.70;;
75272;SDS011;63869;52.344;16.928;2023-02-01T06:39:46;19.75;;;3.75;;
75272;SDS011;63869;52.344;16.928;2023-02-01T06:42:11;15.40;;;3.13;;
75272;SDS011;63869;52.344;16.928;2023-02-01T06:44:37;15.60;;;3.85;;
75272;SDS011;63869;52.344;16.928;2023-02-01T06:47:05;17.52;;;2.95;;
75272;SDS011;63869;52.344;16.928;2023-02-01T06:49:30;17.23;;;3.33;;
75272;SDS011;63869;52.344;16.928;2023-02-01T06:51:55;20.80;;;3.58;;
75272;SDS011;63869;52.344;16.928;2023-02-01T06:54:21;14.85;;;2.58;;
75272;SDS011;63869;52.344;16.928;2023-02-01T06:56:46;18.95;;;3.45;;
75272;SDS011;63869;52.344;16.928;2023-02-01T06:59:12;17.25;;;3.15;;
75272;SDS011;63869;52.344;16.928;2023-02-01T07:01:37;13.20;;;3.08;;
75272;SDS011;63869;52.344;16.928;2023-02-01T07:04:03;12.02;;;2.95;;
75272;SDS011;63869;52.344;16.928;2023-02-01T07:06:28;19.63;;;4.07;;
75272;SDS011;63869;52.344;16.928;2023-02-01T07:08:54;23.00;;;3.35;;
75272;SDS011;63869;52.344;16.928;2023-02-01T07:11:22;16.88;;;3.17;;
75272;SDS011;63869;52.344;16.928;2023-02-01T07:13:48;13.23;;;3.88;;
75272;SDS011;63869;52.344;16.928;2023-02-01T07:16:15;18.52;;;3.20;;
75272;SDS011;63869;52.344;16.928;2023-02-01T07:18:42;19.45;;;3.90;;
75272;SDS011;63869;52.344;16.928;2023-02-01T07:21:07;12.98;;;3.22;;
75272;SDS011;63869;52.344;16.928;2023-02-01T07:23:33;16.73;;;3.58;;
75272;SDS011;63869;52.344;16.928;2023-02-01T07:25:59;14.18;;;3.33;;
75272;SDS011;63869;52.344;16.928;2023-02-01T07:28:28;16.00;;;3.33;;
75272;SDS011;63869;52.344;16.928;2023-02-01T07:31:01;28.65;;;4.10;;
75272;SDS011;63869;52.344;16.928;2023-02-01T07:33:27;13.48;;;4.82;;
75272;SDS011;63869;52.344;16.928;2023-02-01T07:35:53;23.25;;;4.70;;
75272;SDS011;63869;52.344;16.928;2023-02-01T07:38:18;17.13;;;3.53;;
75272;SDS011;63869;52.344;16.928;2023-02-01T07:40:46;11.52;;;3.33;;
75272;SDS011;63869;52.344;16.928;2023-02-01T07:43:11;27.58;;;3.60;;
75272;SDS011;63869;52.344;16.928;2023-02-01T07:45:37;15.90;;;3.40;;
75272;SDS011;63869;52.344;16.928;2023-02-01T09:43:12;12.82;;;4.05;;
75272;SDS011;63869;52.344;16.928;2023-02-01T09:48:43;14.18;;;4.32;;
75272;SDS011;63869;52.344;16.928;2023-02-01T09:51:15;9.43;;;4.43;;
75272;SDS011;63869;52.344;16.928;2023-02-01T09:53:44;12.10;;;4.53;;
75272;SDS011;63869;52.344;16.928;2023-02-01T09:56:14;17.25;;;4.95;;
75272;SDS011;63869;52.344;16.928;2023-02-01T09:58:55;15.73;;;4.43;;
75272;SDS011;63869;52.344;16.928;2023-02-01T10:01:28;17.27;;;4.40;;
75272;SDS011;63869;52.344;16.928;2023-02-01T10:04:12;19.40;;;5.55;;
75272;SDS011;63869;52.344;16.928;2023-02-01T10:07:13;13.57;;;4.45;;
75272;SDS011;63869;52.344;16.928;2023-02-01T10:15:25;13.40;;;4.05;;
75272;SDS011;63869;52.344;16.928;2023-02-01T10:25:37;20.50;;;6.30;;
75272;SDS011;63869;52.344;16.928;2023-02-01T10:28:15;16.25;;;7.32;;
75272;SDS011;63869;52.344;16.928;2023-02-01T10:30:46;23.38;;;8.05;;
75272;SDS011;63869;52.344;16.928;2023-02-01T10:36:03;18.08;;;6.10;;
75272;SDS011;63869;52.344;16.928;2023-02-01T10:38:37;20.00;;;6.25;;
75272;SDS011;63869;52.344;16.928;2023-02-01T10:41:04;15.13;;;5.00;;
75272;SDS011;63869;52.344;16.928;2023-02-01T10:43:44;12.48;;;4.82;;
75272;SDS011;63869;52.344;16.928;2023-02-01T10:46:13;17.92;;;5.35;;
75272;SDS011;63869;52.344;16.928;2023-02-01T10:48:38;12.98;;;5.65;;
75272;SDS011;63869;52.344;16.928;2023-02-01T10:51:06;15.35;;;5.03;;
75272;SDS011;63869;52.344;16.928;2023-02-01T10:53:48;15.25;;;5.13;;
75272;SDS011;63869;52.344;16.928;2023-02-01T10:56:26;13.85;;;5.60;;
75272;SDS011;63869;52.344;16.928;2023-02-01T10:59:00;20.17;;;7.90;;
75272;SDS011;63869;52.344;16.928;2023-02-01T11:01:37;28.70;;;9.65;;
75272;SDS011;63869;52.344;16.928;2023-02-01T11:04:11;15.27;;;7.18;;
75272;SDS011;63869;52.344;16.928;2023-02-01T11:06:40;18.70;;;6.32;;
75272;SDS011;63869;52.344;16.928;2023-02-01T11:09:10;11.75;;;5.95;;
75272;SDS011;63869;52.344;16.928;2023-02-01T11:14:13;21.98;;;6.70;;
75272;SDS011;63869;52.344;16.928;2023-02-01T11:17:01;16.23;;;6.97;;
75272;SDS011;63869;52.344;16.928;2023-02-01T11:19:44;17.50;;;7.00;;
75272;SDS011;63869;52.344;16.928;2023-02-01T11:22:10;14.98;;;6.50;;
75272;SDS011;63869;52.344;16.928;2023-02-01T11:24:44;16.80;;;6.80;;
75272;SDS011;63869;52.344;16.928;2023-02-01T11:27:15;20.10;;;8.80;;
75272;SDS011;63869;52.344;16.928;2023-02-01T11:29:46;14.02;;;8.05;;
75272;SDS011;63869;52.344;16.928;2023-02-01T11:32:14;17.63;;;8.27;;
75272;SDS011;63869;52.344;16.928;2023-02-01T11:37:31;18.27;;;8.20;;
75272;SDS011;63869;52.344;16.928;2023-02-01T11:40:03;24.92;;;9.50;;
75272;SDS011;63869;52.344;16.928;2023-02-01T11:42:55;25.70;;;10.00;;
75272;SDS011;63869;52.344;16.928;2023-02-01T11:47:56;25.38;;;9.75;;
75272;SDS011;63869;52.344;16.928;2023-02-01T12:04:04;18.77;;;7.47;;
75272;SDS011;63869;52.344;16.928;2023-02-01T12:20:35;11.57;;;6.20;;
75272;SDS011;63869;52.344;16.928;2023-02-01T12:31:26;12.55;;;5.82;;
75272;SDS011;63869;52.344;16.928;2023-02-01T12:34:15;13.50;;;5.60;;
75272;SDS011;63869;52.344;16.928;2023-02-01T12:43:18;12.90;;;5.55;;
75272;SDS011;63869;52.344;16.928;2023-02-01T12:45:54;13.77;;;7.03;;
75272;SDS011;63869;52.344;16.928;2023-02-01T12:51:32;17.05;;;8.38;;
75272;SDS011;63869;52.344;16.928;2023-02-01T13:04:46;21.70;;;8.95;;
75272;SDS011;63869;52.344;16.928;2023-02-01T13:07:37;21.23;;;8.30;;
75272;SDS011;63869;52.344;16.928;2023-02-01T13:15:27;22.50;;;8.77;;
75272;SDS011;63869;52.344;16.928;2023-02-01T13:17:57;15.80;;;5.80;;
75272;SDS011;63869;52.344;16.928;2023-02-01T13:20:29;19.87;;;8.23;;
75272;SDS011;63869;52.344;16.928;2023-02-01T13:23:08;19.98;;;9.40;;
75272;SDS011;63869;52.344;16.928;2023-02-01T13:25:49;10.32;;;5.78;;
75272;SDS011;63869;52.344;16.928;2023-02-01T13:28:18;14.82;;;5.20;;
75272;SDS011;63869;52.344;16.928;2023-02-01T13:33:52;11.65;;;3.95;;
75272;SDS011;63869;52.344;16.928;2023-02-01T13:41:59;19.23;;;6.30;;
75272;SDS011;63869;52.344;16.928;2023-02-01T13:44:31;12.27;;;4.80;;
75272;SDS011;63869;52.344;16.928;2023-02-01T13:50:22;10.95;;;4.47;;
75272;SDS011;63869;52.344;16.928;2023-02-01T13:52:55;10.85;;;3.30;;
75272;SDS011;63869;52.344;16.928;2023-02-01T13:55:24;15.82;;;7.40;;
75272;SDS011;63869;52.344;16.928;2023-02-01T13:57:59;15.52;;;6.05;;
75272;SDS011;63869;52.344;16.928;2023-02-01T14:00:38;11.88;;;6.25;;
75272;SDS011;63869;52.344;16.928;2023-02-01T14:13:34;12.93;;;3.97;;
75272;SDS011;63869;52.344;16.928;2023-02-01T14:16:11;12.15;;;5.40;;
75272;SDS011;63869;52.344;16.928;2023-02-01T14:26:23;16.77;;;5.85;;
75272;SDS011;63869;52.344;16.928;2023-02-01T14:28:53;13.73;;;4.45;;
75272;SDS011;63869;52.344;16.928;2023-02-01T14:31:31;16.70;;;5.70;;
75272;SDS011;63869;52.344;16.928;2023-02-01T14:34:11;14.32;;;6.32;;
75272;SDS011;63869;52.344;16.928;2023-02-01T14:37:23;14.15;;;4.30;;
75272;SDS011;63869;52.344;16.928;2023-02-01T14:42:17;14.20;;;5.38;;
75272;SDS011;63869;52.344;16.928;2023-02-01T14:44:49;11.45;;;3.65;;
75272;SDS011;63869;52.344;16.928;2023-02-01T14:52:16;12.38;;;3.67;;
75272;SDS011;63869;52.344;16.928;2023-02-01T14:55:04;10.90;;;3.17;;
75272;SDS011;63869;52.344;16.928;2023-02-01T14:57:34;11.73;;;4.68;;
75272;SDS011;63869;52.344;16.928;2023-02-01T15:00:14;14.38;;;4.80;;
75272;SDS011;63869;52.344;16.928;2023-02-01T15:02:45;20.02;;;6.30;;
75272;SDS011;63869;52.344;16.928;2023-02-01T15:05:25;10.35;;;3.72;;
75272;SDS011;63869;52.344;16.928;2023-02-01T15:07:56;13.30;;;5.50;;
75272;SDS011;63869;52.344;16.928;2023-02-01T15:10:25;11.13;;;4.43;;
75272;SDS011;63869;52.344;16.928;2023-02-01T15:12:51;18.08;;;7.13;;
75272;SDS011;63869;52.344;16.928;2023-02-01T15:15:21;14.02;;;5.13;;
75272;SDS011;63869;52.344;16.928;2023-02-01T15:17:58;11.95;;;4.43;;
75272;SDS011;63869;52.344;16.928;2023-02-01T15:20:31;10.55;;;3.90;;
75272;SDS011;63869;52.344;16.928;2023-02-01T15:22:58;11.02;;;2.90;;
75272;SDS011;63869;52.344;16.928;2023-02-01T15:25:28;9.18;;;3.47;;
75272;SDS011;63869;52.344;16.928;2023-02-01T15:27:57;9.07;;;3.20;;
75272;SDS011;63869;52.344;16.928;2023-02-01T15:30:27;11.57;;;3.40;;
75272;SDS011;63869;52.344;16.928;2023-02-01T15:33:08;14.70;;;5.40;;
75272;SDS011;63869;52.344;16.928;2023-02-01T15:35:42;13.05;;;6.18;;
75272;SDS011;63869;52.344;16.928;2023-02-01T15:46:12;10.60;;;3.97;;
75272;SDS011;63869;52.344;16.928;2023-02-01T15:48:43;9.73;;;4.13;;
75272;SDS011;63869;52.344;16.928;2023-02-01T15:51:17;9.98;;;4.50;;
75272;SDS011;63869;52.344;16.928;2023-02-01T15:53:53;17.02;;;6.93;;
75272;SDS011;63869;52.344;16.928;2023-02-01T15:56:33;16.73;;;4.95;;
75272;SDS011;63869;52.344;16.928;2023-02-01T15:59:01;16.67;;;6.15;;
75272;SDS011;63869;52.344;16.928;2023-02-01T16:01:28;31.83;;;10.05;;
75272;SDS011;63869;52.344;16.928;2023-02-01T16:06:49;15.35;;;4.82;;
75272;SDS011;63869;52.344;16.928;2023-02-01T16:09:21;28.08;;;7.25;;
75272;SDS011;63869;52.344;16.928;2023-02-01T16:12:00;11.50;;;4.00;;
75272;SDS011;63869;52.344;16.928;2023-02-01T16:14:27;10.32;;;4.35;;
75272;SDS011;63869;52.344;16.928;2023-02-01T16:16:53;12.15;;;5.05;;
75272;SDS011;63869;52.344;16.928;2023-02-01T16:19:20;9.80;;;3.80;;
75272;SDS011;63869;52.344;16.928;2023-02-01T16:21:48;7.35;;;3.25;;
75272;SDS011;63869;52.344;16.928;2023-02-01T16:24:13;11.52;;;4.00;;
75272;SDS011;63869;52.344;16.928;2023-02-01T16:26:38;9.50;;;3.58;;
75272;SDS011;63869;52.344;16.928;2023-02-01T16:29:04;10.60;;;4.22;;
75272;SDS011;63869;52.344;16.928;2023-02-01T16:31:31;10.32;;;3.63;;
75272;SDS011;63869;52.344;16.928;2023-02-01T16:33:59;10.02;;;4.18;;
75272;SDS011;63869;52.344;16.928;2023-02-01T16:36:26;11.80;;;4.90;;
75272;SDS011;63869;52.344;16.928;2023-02-01T16:38:53;8.35;;;4.22;;
75272;SDS011;63869;52.344;16.928;2023-02-01T16:41:19;10.13;;;4.72;;
75272;SDS011;63869;52.344;16.928;2023-02-01T16:43:50;15.07;;;5.10;;
75272;SDS011;63869;52.344;16.928;2023-02-01T16:46:19;9.85;;;4.40;;
75272;SDS011;63869;52.344;16.928;2023-02-01T16:49:22;10.90;;;4.85;;
75272;SDS011;63869;52.344;16.928;2023-02-01T16:51:48;14.50;;;6.07;;
75272;SDS011;63869;52.344;16.928;2023-02-01T16:54:15;11.90;;;5.65;;
75272;SDS011;63869;52.344;16.928;2023-02-01T16:56:40;17.52;;;6.03;;
75272;SDS011;63869;52.344;16.928;2023-02-01T16:59:07;15.85;;;5.68;;
75272;SDS011;63869;52.344;16.928;2023-02-01T17:01:33;16.60;;;7.28;;
75272;SDS011;63869;52.344;16.928;2023-02-01T17:04:02;19.77;;;7.95;;
75272;SDS011;63869;52.344;16.928;2023-02-01T17:06:28;25.27;;;9.00;;
75272;SDS011;63869;52.344;16.928;2023-02-01T17:08:55;21.17;;;7.85;;
75272;SDS011;63869;52.344;16.928;2023-02-01T17:11:25;15.23;;;5.40;;
75272;SDS011;63869;52.344;16.928;2023-02-01T17:13:52;22.30;;;8.57;;
75272;SDS011;63869;52.344;16.928;2023-02-01T17:18:43;30.42;;;10.60;;
75272;SDS011;63869;52.344;16.928;2023-02-01T17:21:11;40.53;;;13.77;;
75272;SDS011;63869;52.344;16.928;2023-02-01T17:23:37;38.65;;;13.63;;
75272;SDS011;63869;52.344;16.928;2023-02-01T17:26:02;24.33;;;10.55;;
75272;SDS011;63869;52.344;16.928;2023-02-01T17:28:29;19.33;;;6.80;;
75272;SDS011;63869;52.344;16.928;2023-02-01T17:30:55;12.00;;;6.13;;
75272;SDS011;63869;52.344;16.928;2023-02-01T17:33:26;13.68;;;5.05;;
75272;SDS011;63869;52.344;16.928;2023-02-01T17:38:20;10.60;;;5.20;;
75272;SDS011;63869;52.344;16.928;2023-02-01T17:40:47;11.68;;;5.25;;
75272;SDS011;63869;52.344;16.928;2023-02-01T17:43:13;14.98;;;6.20;;
75272;SDS011;63869;52.344;16.928;2023-02-01T17:45:49;12.40;;;5.55;;
75272;SDS011;63869;52.344;16.928;2023-02-01T17:48:20;15.35;;;6.50;;
75272;SDS011;63869;52.344;16.928;2023-02-01T17:50:50;10.88;;;5.07;;
75272;SDS011;63869;52.344;16.928;2023-02-01T17:53:19;12.88;;;4.40;;
75272;SDS011;63869;52.344;16.928;2023-02-01T17:55:49;10.82;;;4.75;;
75272;SDS011;63869;52.344;16.928;2023-02-01T17:58:16;13.95;;;6.60;;
75272;SDS011;63869;52.344;16.928;2023-02-01T18:00:43;13.27;;;5.65;;
75272;SDS011;63869;52.344;16.928;2023-02-01T18:03:20;15.55;;;6.40;;
75272;SDS011;63869;52.344;16.928;2023-02-01T18:05:50;13.05;;;6.75;;
75272;SDS011;63869;52.344;16.928;2023-02-01T18:08:18;15.50;;;7.25;;
75272;SDS011;63869;52.344;16.928;2023-02-01T18:10:46;19.90;;;8.13;;
75272;SDS011;63869;52.344;16.928;2023-02-01T18:13:13;24.88;;;10.93;;
75272;SDS011;63869;52.344;16.928;2023-02-01T18:15:38;31.38;;;11.90;;
75272;SDS011;63869;52.344;16.928;2023-02-01T18:18:04;18.05;;;9.07;;
75272;SDS011;63869;52.344;16.928;2023-02-01T18:20:30;19.35;;;8.05;;
75272;SDS011;63869;52.344;16.928;2023-02-01T18:22:55;22.05;;;7.93;;
75272;SDS011;63869;52.344;16.928;2023-02-01T18:25:21;15.48;;;7.63;;
75272;SDS011;63869;52.344;16.928;2023-02-01T18:27:50;19.67;;;7.22;;
75272;SDS011;63869;52.344;16.928;2023-02-01T18:30:17;26.50;;;8.27;;
75272;SDS011;63869;52.344;16.928;2023-02-01T18:32:43;26.08;;;8.20;;
75272;SDS011;63869;52.344;16.928;2023-02-01T18:35:13;21.70;;;10.15;;
75272;SDS011;63869;52.344;16.928;2023-02-01T18:37:42;16.17;;;7.13;;
75272;SDS011;63869;52.344;16.928;2023-02-01T18:40:11;19.48;;;8.48;;
75272;SDS011;63869;52.344;16.928;2023-02-01T18:42:39;19.13;;;8.38;;
75272;SDS011;63869;52.344;16.928;2023-02-01T18:45:05;15.85;;;7.60;;
75272;SDS011;63869;52.344;16.928;2023-02-01T18:50:04;16.20;;;8.13;;
75272;SDS011;63869;52.344;16.928;2023-02-01T18:52:29;25.88;;;10.52;;
75272;SDS011;63869;52.344;16.928;2023-02-01T18:54:54;30.98;;;12.50;;
75272;SDS011;63869;52.344;16.928;2023-02-01T18:57:20;29.85;;;13.55;;
75272;SDS011;63869;52.344;16.928;2023-02-01T18:59:45;37.63;;;15.73;;
75272;SDS011;63869;52.344;16.928;2023-02-01T19:02:11;38.15;;;15.88;;
75272;SDS011;63869;52.344;16.928;2023-02-01T19:04:37;34.47;;;15.00;;
75272;SDS011;63869;52.344;16.928;2023-02-01T19:07:02;35.92;;;13.93;;
75272;SDS011;63869;52.344;16.928;2023-02-01T19:09:27;34.30;;;14.15;;
75272;SDS011;63869;52.344;16.928;2023-02-01T19:11:53;39.15;;;16.67;;
75272;SDS011;63869;52.344;16.928;2023-02-01T19:14:18;21.67;;;8.32;;
75272;SDS011;63869;52.344;16.928;2023-02-01T19:16:43;17.85;;;7.75;;
75272;SDS011;63869;52.344;16.928;2023-02-01T19:19:09;14.68;;;6.68;;
75272;SDS011;63869;52.344;16.928;2023-02-01T19:21:34;16.50;;;5.95;;
75272;SDS011;63869;52.344;16.928;2023-02-01T19:23:59;14.68;;;6.03;;
75272;SDS011;63869;52.344;16.928;2023-02-01T19:26:25;11.32;;;4.78;;
75272;SDS011;63869;52.344;16.928;2023-02-01T19:28:50;16.10;;;6.22;;
75272;SDS011;63869;52.344;16.928;2023-02-01T19:31:15;14.63;;;7.50;;
75272;SDS011;63869;52.344;16.928;2023-02-01T19:33:41;15.68;;;7.28;;